createdAt,value
2023-04-16T00:00:14.000Z,518.262451171875
2023-04-16T00:01:17.000Z,520.6429443359375
2023-04-16T00:02:19.000Z,519.2109985351562
2023-04-16T00:03:21.000Z,519.0301513671875
2023-04-16T00:04:24.000Z,520.4403686523438
2023-04-16T00:05:26.000Z,522.470703125
2023-04-16T00:06:28.000Z,520.6666870117188
2023-04-16T00:07:31.000Z,518.7066040039062
2023-04-16T00:08:33.000Z,517.4371337890625
2023-04-16T00:09:35.000Z,518.7706909179688
2023-04-16T00:10:38.000Z,515.7736206054688
2023-04-16T00:11:40.000Z,510.2071533203125
2023-04-16T00:12:42.000Z,510.38861083984375
2023-04-16T00:13:45.000Z,512.6513671875
2023-04-16T00:14:47.000Z,517.174072265625
2023-04-16T00:15:49.000Z,520.6572875976562
2023-04-16T00:16:52.000Z,522.6857299804688
2023-04-16T00:17:54.000Z,523.7030639648438
2023-04-16T00:18:57.000Z,527.6873779296875
2023-04-16T00:19:59.000Z,528.4063720703125
2023-04-16T00:21:01.000Z,522.3858032226562
2023-04-16T00:22:04.000Z,517.0146484375
2023-04-16T00:23:06.000Z,518.71826171875
2023-04-16T00:24:08.000Z,514.9754028320312
2023-04-16T00:25:11.000Z,511.6701354980469
2023-04-16T00:26:13.000Z,513.1285400390625
2023-04-16T00:27:15.000Z,508.1681823730469
2023-04-16T00:28:18.000Z,505.6404724121094
2023-04-16T00:29:20.000Z,501.99530029296875
2023-04-16T00:30:23.000Z,500.1510925292969
2023-04-16T00:31:25.000Z,500.6299743652344
2023-04-16T00:32:27.000Z,503.50506591796875
2023-04-16T00:33:30.000Z,501.9716491699219
2023-04-16T00:34:32.000Z,503.343017578125
2023-04-16T00:35:34.000Z,506.980712890625
2023-04-16T00:36:37.000Z,504.9129638671875
2023-04-16T00:37:39.000Z,504.0472106933594
2023-04-16T00:38:42.000Z,504.42041015625
2023-04-16T00:39:44.000Z,504.14154052734375
2023-04-16T00:40:46.000Z,507.8545837402344
2023-04-16T00:41:49.000Z,511.128173828125
2023-04-16T00:42:51.000Z,512.5424194335938
2023-04-16T00:43:54.000Z,515.7100830078125
2023-04-16T00:44:56.000Z,518.3373413085938
2023-04-16T00:45:58.000Z,519.0084228515625
2023-04-16T00:47:01.000Z,520.5108032226562
2023-04-16T00:48:03.000Z,516.5901489257812
2023-04-16T00:49:05.000Z,512.7869262695312
2023-04-16T00:50:08.000Z,511.7054138183594
2023-04-16T00:51:10.000Z,508.59588623046875
2023-04-16T00:52:12.000Z,507.75079345703125
2023-04-16T00:53:15.000Z,511.3687744140625
2023-04-16T00:54:17.000Z,513.1094970703125
2023-04-16T00:55:20.000Z,511.2351379394531
2023-04-16T00:56:22.000Z,509.70050048828125
2023-04-16T00:57:24.000Z,511.7893981933594
2023-04-16T00:58:27.000Z,512.3404541015625
2023-04-16T00:59:29.000Z,512.8488159179688
2023-04-16T01:00:31.000Z,512.239013671875
2023-04-16T01:01:34.000Z,511.87255859375
2023-04-16T01:02:36.000Z,510.595703125
2023-04-16T01:03:38.000Z,510.077880859375
2023-04-16T01:04:41.000Z,508.98773193359375
2023-04-16T01:05:43.000Z,510.2995300292969
2023-04-16T01:06:45.000Z,511.3979797363281
2023-04-16T01:07:48.000Z,510.3601989746094
2023-04-16T01:08:50.000Z,511.0213623046875
2023-04-16T01:09:52.000Z,509.1097412109375
2023-04-16T01:10:55.000Z,511.51312255859375
2023-04-16T01:11:57.000Z,512.9013671875
2023-04-16T01:12:59.000Z,512.7071533203125
2023-04-16T01:14:02.000Z,510.9187316894531
2023-04-16T01:15:04.000Z,504.0697937011719
2023-04-16T01:16:07.000Z,500.9755859375
2023-04-16T01:17:09.000Z,499.8882141113281
2023-04-16T01:18:11.000Z,498.5438232421875
2023-04-16T01:19:14.000Z,497.4451904296875
2023-04-16T01:20:16.000Z,497.0696105957031
2023-04-16T01:21:18.000Z,498.7056884765625
2023-04-16T01:22:21.000Z,502.6884460449219
2023-04-16T01:23:23.000Z,503.4868469238281
2023-04-16T01:24:25.000Z,503.0161437988281
2023-04-16T01:25:28.000Z,505.6469421386719
2023-04-16T01:26:30.000Z,505.6683349609375
2023-04-16T01:27:32.000Z,506.9966125488281
2023-04-16T01:28:35.000Z,509.0845947265625
2023-04-16T01:29:37.000Z,509.92193603515625
2023-04-16T01:30:39.000Z,510.4271240234375
2023-04-16T01:31:42.000Z,511.85919189453125
2023-04-16T01:32:44.000Z,514.3143920898438
2023-04-16T01:33:47.000Z,515.1990966796875
2023-04-16T01:34:49.000Z,513.8125610351562
2023-04-16T01:35:51.000Z,511.9843444824219
2023-04-16T01:36:54.000Z,509.0238037109375
2023-04-16T01:37:56.000Z,509.0831604003906
2023-04-16T01:38:58.000Z,508.5679016113281
2023-04-16T01:40:01.000Z,510.352294921875
2023-04-16T01:41:03.000Z,507.4453125
2023-04-16T01:42:05.000Z,504.57049560546875
2023-04-16T01:43:08.000Z,501.5776062011719
2023-04-16T01:44:10.000Z,503.1745910644531
2023-04-16T01:45:12.000Z,502.6274719238281
2023-04-16T01:46:15.000Z,504.44195556640625
2023-04-16T01:47:17.000Z,502.9639587402344
2023-04-16T01:48:20.000Z,499.57049560546875
2023-04-16T01:49:22.000Z,497.1853942871094
2023-04-16T01:50:24.000Z,495.628173828125
2023-04-16T01:51:27.000Z,496.5315246582031
2023-04-16T01:52:29.000Z,496.5445251464844
2023-04-16T01:53:31.000Z,497.7688293457031
2023-04-16T01:54:34.000Z,498.2306823730469
2023-04-16T01:55:36.000Z,496.1929626464844
2023-04-16T01:56:39.000Z,492.3543395996094
2023-04-16T01:57:41.000Z,492.3313293457031
2023-04-16T01:58:43.000Z,489.8776550292969
2023-04-16T01:59:46.000Z,488.7554626464844
2023-04-16T02:00:48.000Z,488.5097961425781
2023-04-16T02:01:50.000Z,489.7368469238281
2023-04-16T02:02:53.000Z,490.3806457519531
2023-04-16T02:03:55.000Z,491.2132873535156
2023-04-16T02:04:57.000Z,493.64520263671875
2023-04-16T02:06:00.000Z,493.9176025390625
2023-04-16T02:07:02.000Z,492.697265625
2023-04-16T02:08:04.000Z,492.9826354980469
2023-04-16T02:09:07.000Z,493.0400695800781
2023-04-16T02:10:09.000Z,492.5728759765625
2023-04-16T02:11:12.000Z,493.15985107421875
2023-04-16T02:12:14.000Z,495.3290710449219
2023-04-16T02:13:16.000Z,494.2178955078125
2023-04-16T02:14:19.000Z,492.8744201660156
2023-04-16T02:15:21.000Z,491.4496765136719
2023-04-16T02:16:23.000Z,491.1827697753906
2023-04-16T02:17:26.000Z,489.8590087890625
2023-04-16T02:18:28.000Z,491.39068603515625
2023-04-16T02:19:30.000Z,489.9555969238281
2023-04-16T02:20:33.000Z,488.77667236328125
2023-04-16T02:21:35.000Z,488.084228515625
2023-04-16T02:22:37.000Z,485.6484375
2023-04-16T02:23:40.000Z,487.09283447265625
2023-04-16T02:24:42.000Z,488.3789978027344
2023-04-16T02:25:45.000Z,488.07635498046875
2023-04-16T02:26:47.000Z,488.8144836425781
2023-04-16T02:27:49.000Z,487.0941467285156
2023-04-16T02:28:52.000Z,485.4748840332031
2023-04-16T02:29:54.000Z,483.2984313964844
2023-04-16T02:30:56.000Z,480.1722412109375
2023-04-16T02:31:59.000Z,478.7088928222656
2023-04-16T02:33:01.000Z,481.9258117675781
2023-04-16T02:34:03.000Z,483.63922119140625
2023-04-16T02:35:06.000Z,485.205078125
2023-04-16T02:36:08.000Z,485.4393615722656
2023-04-16T02:37:10.000Z,484.8620300292969
2023-04-16T02:38:13.000Z,486.7377014160156
2023-04-16T02:39:15.000Z,485.8119812011719
2023-04-16T02:40:17.000Z,487.4052429199219
2023-04-16T02:41:20.000Z,486.0145263671875
2023-04-16T02:42:22.000Z,485.36175537109375
2023-04-16T02:43:25.000Z,483.6470947265625
2023-04-16T02:44:27.000Z,481.3886413574219
2023-04-16T02:45:29.000Z,477.2828063964844
2023-04-16T02:46:31.000Z,473.0135803222656
2023-04-16T02:47:34.000Z,473.6991882324219
2023-04-16T02:48:36.000Z,474.3991394042969
2023-04-16T02:49:39.000Z,476.46905517578125
2023-04-16T02:50:41.000Z,475.0016174316406
2023-04-16T02:51:43.000Z,477.98846435546875
2023-04-16T02:52:46.000Z,475.7702331542969
2023-04-16T02:53:48.000Z,476.01031494140625
2023-04-16T02:54:50.000Z,475.10748291015625
2023-04-16T02:55:53.000Z,478.7292175292969
2023-04-16T02:56:55.000Z,481.1331481933594
2023-04-16T02:57:58.000Z,482.2776184082031
2023-04-16T02:59:00.000Z,481.57470703125
2023-04-16T03:00:02.000Z,480.833984375
2023-04-16T03:01:05.000Z,480.07196044921875
2023-04-16T03:02:07.000Z,479.3196105957031
2023-04-16T03:03:09.000Z,479.7294921875
2023-04-16T03:04:12.000Z,482.5412292480469
2023-04-16T03:05:14.000Z,482.2065124511719
2023-04-16T03:06:17.000Z,482.6767883300781
2023-04-16T03:07:19.000Z,482.1617126464844
2023-04-16T03:08:21.000Z,481.14703369140625
2023-04-16T03:09:24.000Z,479.6703186035156
2023-04-16T03:10:26.000Z,478.7015380859375
2023-04-16T03:11:28.000Z,482.14935302734375
2023-04-16T03:12:31.000Z,480.51458740234375
2023-04-16T03:13:33.000Z,482.3298034667969
2023-04-16T03:14:35.000Z,482.41448974609375
2023-04-16T03:15:38.000Z,480.8553161621094
2023-04-16T03:16:40.000Z,480.013671875
2023-04-16T03:17:43.000Z,481.7041320800781
2023-04-16T03:18:45.000Z,482.8044738769531
2023-04-16T03:19:47.000Z,477.9321594238281
2023-04-16T03:20:50.000Z,478.6011962890625
2023-04-16T03:21:52.000Z,480.46728515625
2023-04-16T03:22:55.000Z,482.0372009277344
2023-04-16T03:23:57.000Z,482.93353271484375
2023-04-16T03:24:59.000Z,482.0223083496094
2023-04-16T03:26:02.000Z,483.8519287109375
2023-04-16T03:27:04.000Z,483.58099365234375
2023-04-16T03:28:07.000Z,485.31781005859375
2023-04-16T03:29:09.000Z,486.2139587402344
2023-04-16T03:30:11.000Z,487.8397216796875
2023-04-16T03:31:14.000Z,488.23236083984375
2023-04-16T03:32:16.000Z,489.56011962890625
2023-04-16T03:33:19.000Z,494.6260681152344
2023-04-16T03:34:21.000Z,496.5150146484375
2023-04-16T03:35:23.000Z,497.9455871582031
2023-04-16T03:36:26.000Z,500.4844055175781
2023-04-16T03:37:28.000Z,500.5703430175781
2023-04-16T03:38:31.000Z,500.46142578125
2023-04-16T03:39:33.000Z,501.1700134277344
2023-04-16T03:40:35.000Z,501.5401611328125
2023-04-16T03:41:38.000Z,503.1047668457031
2023-04-16T03:42:40.000Z,501.9957580566406
2023-04-16T03:43:43.000Z,500.1490173339844
2023-04-16T03:44:45.000Z,501.82525634765625
2023-04-16T03:45:47.000Z,502.798583984375
2023-04-16T03:46:50.000Z,504.046630859375
2023-04-16T03:47:52.000Z,502.54193115234375
2023-04-16T03:48:54.000Z,500.9097900390625
2023-04-16T03:49:57.000Z,501.55633544921875
2023-04-16T03:50:59.000Z,500.90118408203125
2023-04-16T03:52:02.000Z,501.6236877441406
2023-04-16T03:53:04.000Z,499.73089599609375
2023-04-16T03:54:07.000Z,501.15814208984375
2023-04-16T03:55:09.000Z,501.4542541503906
2023-04-16T03:56:11.000Z,504.1339416503906
2023-04-16T03:57:14.000Z,503.5920104980469
2023-04-16T03:58:16.000Z,503.5705871582031
2023-04-16T03:59:19.000Z,504.9969787597656
2023-04-16T04:00:21.000Z,507.777099609375
2023-04-16T04:01:23.000Z,508.1700744628906
2023-04-16T04:02:26.000Z,507.5862731933594
2023-04-16T04:03:28.000Z,504.9225769042969
2023-04-16T04:04:31.000Z,504.59429931640625
2023-04-16T04:05:33.000Z,504.09210205078125
2023-04-16T04:06:35.000Z,500.7548828125
2023-04-16T04:07:38.000Z,500.43621826171875
2023-04-16T04:08:40.000Z,501.0458984375
2023-04-16T04:09:43.000Z,500.8735656738281
2023-04-16T04:10:45.000Z,500.1927795410156
2023-04-16T04:11:47.000Z,497.4894104003906
2023-04-16T04:12:50.000Z,498.44146728515625
2023-04-16T04:13:52.000Z,498.3220520019531
2023-04-16T04:14:55.000Z,499.4951171875
2023-04-16T04:15:57.000Z,500.5810546875
2023-04-16T04:16:59.000Z,498.7750244140625
2023-04-16T04:18:02.000Z,494.9083251953125
2023-04-16T04:19:04.000Z,492.68646240234375
2023-04-16T04:20:07.000Z,487.8803405761719
2023-04-16T04:21:09.000Z,488.3960876464844
2023-04-16T04:22:16.000Z,486.4279479980469
2023-04-16T04:23:19.000Z,482.1550598144531
2023-04-16T04:24:21.000Z,480.1231384277344
2023-04-16T04:25:24.000Z,472.326904296875
2023-04-16T04:26:26.000Z,468.5366516113281
2023-04-16T04:27:28.000Z,464.18231201171875
2023-04-16T04:28:31.000Z,461.59490966796875
2023-04-16T04:29:33.000Z,458.34027099609375
2023-04-16T04:30:36.000Z,455.97314453125
2023-04-16T04:31:38.000Z,455.4215087890625
2023-04-16T04:32:40.000Z,454.4917297363281
2023-04-16T04:33:43.000Z,452.39605712890625
2023-04-16T04:34:45.000Z,453.7012939453125
2023-04-16T04:35:48.000Z,454.0785217285156
2023-04-16T04:36:50.000Z,454.83013916015625
2023-04-16T04:37:53.000Z,454.79693603515625
2023-04-16T04:38:55.000Z,454.4739990234375
2023-04-16T04:39:57.000Z,450.6262512207031
2023-04-16T04:41:00.000Z,451.780029296875
2023-04-16T04:42:02.000Z,451.1532287597656
2023-04-16T04:43:04.000Z,451.8029479980469
2023-04-16T04:44:07.000Z,449.84100341796875
2023-04-16T04:45:09.000Z,452.0268859863281
2023-04-16T04:46:12.000Z,452.8398132324219
2023-04-16T04:47:14.000Z,454.9232177734375
2023-04-16T04:48:16.000Z,457.21820068359375
2023-04-16T04:49:19.000Z,457.1474304199219
2023-04-16T04:50:21.000Z,457.7843322753906
2023-04-16T04:51:24.000Z,456.80328369140625
2023-04-16T04:52:26.000Z,455.3235778808594
2023-04-16T04:53:28.000Z,454.0949401855469
2023-04-16T04:54:31.000Z,452.96697998046875
2023-04-16T04:55:33.000Z,453.34124755859375
2023-04-16T04:56:35.000Z,452.63946533203125
2023-04-16T04:57:38.000Z,451.9746398925781
2023-04-16T04:58:40.000Z,454.0028076171875
2023-04-16T04:59:42.000Z,452.2879943847656
2023-04-16T05:00:45.000Z,449.398681640625
2023-04-16T05:01:47.000Z,449.5887451171875
2023-04-16T05:02:49.000Z,448.3715515136719
2023-04-16T05:03:52.000Z,449.24774169921875
2023-04-16T05:04:54.000Z,449.9539794921875
2023-04-16T05:05:57.000Z,447.8514709472656
2023-04-16T05:06:59.000Z,447.1189880371094
2023-04-16T05:08:01.000Z,447.5020446777344
2023-04-16T05:09:04.000Z,448.47235107421875
2023-04-16T05:10:06.000Z,449.0383605957031
2023-04-16T05:11:09.000Z,449.0254821777344
2023-04-16T05:12:11.000Z,449.8611145019531
2023-04-16T05:13:14.000Z,448.3026428222656
2023-04-16T05:14:16.000Z,448.2637023925781
2023-04-16T05:15:18.000Z,444.3486633300781
2023-04-16T05:16:21.000Z,445.56060791015625
2023-04-16T05:17:23.000Z,446.44940185546875
2023-04-16T05:18:25.000Z,444.6075134277344
2023-04-16T05:19:28.000Z,444.0399475097656
2023-04-16T05:20:30.000Z,442.934326171875
2023-04-16T05:21:33.000Z,441.96392822265625
2023-04-16T05:22:35.000Z,441.1226806640625
2023-04-16T05:23:37.000Z,440.87164306640625
2023-04-16T05:24:40.000Z,442.19866943359375
2023-04-16T05:25:42.000Z,445.30169677734375
2023-04-16T05:26:45.000Z,444.9414978027344
2023-04-16T05:27:47.000Z,449.58282470703125
2023-04-16T05:28:49.000Z,448.89056396484375
2023-04-16T05:29:52.000Z,447.8378601074219
2023-04-16T05:30:54.000Z,443.7454528808594
2023-04-16T05:31:56.000Z,441.94921875
2023-04-16T05:32:59.000Z,440.6420593261719
2023-04-16T05:34:01.000Z,441.40106201171875
2023-04-16T05:35:03.000Z,441.72705078125
2023-04-16T05:36:06.000Z,443.2848815917969
2023-04-16T05:37:08.000Z,443.2024230957031
2023-04-16T05:38:11.000Z,442.90191650390625
2023-04-16T05:39:13.000Z,441.29302978515625
2023-04-16T05:40:15.000Z,437.12103271484375
2023-04-16T05:41:18.000Z,437.1307067871094
2023-04-16T05:42:20.000Z,438.7622375488281
2023-04-16T05:43:23.000Z,441.00079345703125
2023-04-16T05:44:25.000Z,443.147705078125
2023-04-16T05:45:27.000Z,443.15777587890625
2023-04-16T05:46:35.000Z,443.0133972167969
2023-04-16T05:47:37.000Z,442.6990966796875
2023-04-16T05:48:39.000Z,440.9363098144531
2023-04-16T05:49:42.000Z,441.047119140625
2023-04-16T05:50:44.000Z,440.12347412109375
2023-04-16T05:51:47.000Z,438.37493896484375
2023-04-16T05:52:49.000Z,436.2995910644531
2023-04-16T05:53:51.000Z,438.3197937011719
2023-04-16T05:54:54.000Z,442.1214294433594
2023-04-16T05:55:56.000Z,443.9216003417969
2023-04-16T05:56:59.000Z,443.2142639160156
2023-04-16T05:58:01.000Z,444.5951232910156
2023-04-16T05:59:03.000Z,444.36029052734375
2023-04-16T06:00:06.000Z,442.510498046875
2023-04-16T06:01:08.000Z,442.0169982910156
2023-04-16T06:02:11.000Z,439.57745361328125
2023-04-16T06:03:13.000Z,440.7071228027344
2023-04-16T06:04:15.000Z,440.5071105957031
2023-04-16T06:05:18.000Z,437.95587158203125
2023-04-16T06:06:20.000Z,436.58367919921875
2023-04-16T06:07:23.000Z,438.1108093261719
2023-04-16T06:08:25.000Z,437.6912536621094
2023-04-16T06:09:27.000Z,436.9166259765625
2023-04-16T06:10:30.000Z,436.82635498046875
2023-04-16T06:11:32.000Z,436.482177734375
2023-04-16T06:12:35.000Z,438.2913513183594
2023-04-16T06:13:37.000Z,437.0769958496094
2023-04-16T06:14:39.000Z,437.70037841796875
2023-04-16T06:15:42.000Z,437.486572265625
2023-04-16T06:16:44.000Z,438.0787048339844
2023-04-16T06:17:46.000Z,437.7935791015625
2023-04-16T06:18:49.000Z,437.7828369140625
2023-04-16T06:19:51.000Z,435.6881408691406
2023-04-16T06:20:54.000Z,437.18475341796875
2023-04-16T06:21:56.000Z,439.511474609375
2023-04-16T06:22:59.000Z,439.4776916503906
2023-04-16T06:24:01.000Z,440.94305419921875
2023-04-16T06:25:03.000Z,442.07794189453125
2023-04-16T06:26:06.000Z,445.74200439453125
2023-04-16T06:27:08.000Z,446.4725341796875
2023-04-16T06:28:10.000Z,444.27899169921875
2023-04-16T06:29:13.000Z,444.3789978027344
2023-04-16T06:30:15.000Z,443.7672424316406
2023-04-16T06:31:18.000Z,441.57672119140625
2023-04-16T06:32:20.000Z,440.7783508300781
2023-04-16T06:33:22.000Z,440.62567138671875
2023-04-16T06:34:25.000Z,439.5474548339844
2023-04-16T06:35:27.000Z,439.16204833984375
2023-04-16T06:36:29.000Z,439.9410705566406
2023-04-16T06:37:32.000Z,439.93572998046875
2023-04-16T06:38:35.000Z,437.395751953125
2023-04-16T06:39:37.000Z,436.8372497558594
2023-04-16T06:40:39.000Z,438.5267639160156
2023-04-16T06:41:42.000Z,438.8046875
2023-04-16T06:42:44.000Z,438.4921569824219
2023-04-16T06:43:46.000Z,438.3708190917969
2023-04-16T06:44:49.000Z,440.6597900390625
2023-04-16T06:45:51.000Z,439.8526916503906
2023-04-16T06:46:53.000Z,441.3050231933594
2023-04-16T06:47:56.000Z,443.74542236328125
2023-04-16T06:48:58.000Z,447.8023986816406
2023-04-16T06:50:01.000Z,448.2308654785156
2023-04-16T06:51:03.000Z,448.76324462890625
2023-04-16T06:52:06.000Z,448.4056396484375
2023-04-16T06:53:08.000Z,447.5855712890625
2023-04-16T06:54:12.000Z,446.9507141113281
2023-04-16T06:55:14.000Z,449.0890808105469
2023-04-16T06:56:17.000Z,448.5770568847656
2023-04-16T06:57:24.000Z,447.5128479003906
2023-04-16T06:58:26.000Z,446.1050720214844
2023-04-16T06:59:29.000Z,444.1675109863281
2023-04-16T07:00:31.000Z,442.27557373046875
2023-04-16T07:01:34.000Z,441.14215087890625
2023-04-16T07:02:36.000Z,440.958984375
2023-04-16T07:03:38.000Z,440.21002197265625
2023-04-16T07:04:41.000Z,439.6862487792969
2023-04-16T07:05:43.000Z,440.6204833984375
2023-04-16T07:06:46.000Z,441.6316223144531
2023-04-16T07:07:48.000Z,438.2119445800781
2023-04-16T07:08:50.000Z,432.482421875
2023-04-16T07:09:53.000Z,433.2762756347656
2023-04-16T07:10:55.000Z,432.3927307128906
2023-04-16T07:11:57.000Z,431.5146484375
2023-04-16T07:13:00.000Z,429.520751953125
2023-04-16T07:14:02.000Z,431.4732971191406
2023-04-16T07:15:04.000Z,431.6091613769531
2023-04-16T07:16:07.000Z,429.5572204589844
2023-04-16T07:17:09.000Z,429.548828125
2023-04-16T07:18:11.000Z,429.2011413574219
2023-04-16T07:19:14.000Z,430.32470703125
2023-04-16T07:20:16.000Z,429.29876708984375
2023-04-16T07:21:19.000Z,427.8077697753906
2023-04-16T07:22:21.000Z,425.518310546875
2023-04-16T07:23:24.000Z,427.02618408203125
2023-04-16T07:24:26.000Z,427.3265686035156
2023-04-16T07:25:28.000Z,425.6712341308594
2023-04-16T07:26:31.000Z,424.6080627441406
2023-04-16T07:27:33.000Z,424.7532043457031
2023-04-16T07:28:36.000Z,424.2278137207031
2023-04-16T07:29:38.000Z,423.9879455566406
2023-04-16T07:30:40.000Z,425.5766906738281
2023-04-16T07:31:43.000Z,427.1159973144531
2023-04-16T07:32:45.000Z,427.0437927246094
2023-04-16T07:33:47.000Z,428.74407958984375
2023-04-16T07:34:50.000Z,430.6668701171875
2023-04-16T07:35:52.000Z,430.7160949707031
2023-04-16T07:36:54.000Z,431.0600280761719
2023-04-16T07:37:57.000Z,429.8365173339844
2023-04-16T07:38:59.000Z,430.03009033203125
2023-04-16T07:40:01.000Z,432.53265380859375
2023-04-16T07:41:04.000Z,433.0979919433594
2023-04-16T07:42:06.000Z,433.2137451171875
2023-04-16T07:43:08.000Z,432.12982177734375
2023-04-16T07:44:11.000Z,432.318603515625
2023-04-16T07:45:13.000Z,431.65185546875
2023-04-16T07:46:15.000Z,428.1502990722656
2023-04-16T07:47:18.000Z,426.7773132324219
2023-04-16T07:48:20.000Z,429.4131164550781
2023-04-16T07:49:22.000Z,429.71759033203125
2023-04-16T07:50:25.000Z,429.5339050292969
2023-04-16T07:51:27.000Z,432.17218017578125
2023-04-16T07:52:30.000Z,429.610107421875
2023-04-16T07:53:32.000Z,429.8447265625
2023-04-16T07:54:34.000Z,430.3724060058594
2023-04-16T07:55:37.000Z,428.97198486328125
2023-04-16T07:56:39.000Z,428.7662048339844
2023-04-16T07:57:41.000Z,425.9826354980469
2023-04-16T07:58:44.000Z,428.9288024902344
2023-04-16T07:59:46.000Z,431.5597839355469
2023-04-16T08:00:48.000Z,429.38385009765625
2023-04-16T08:01:51.000Z,425.26544189453125
2023-04-16T08:02:53.000Z,425.1665954589844
2023-04-16T08:03:55.000Z,425.8610534667969
2023-04-16T08:04:57.000Z,425.4875183105469
2023-04-16T08:06:00.000Z,426.10723876953125
2023-04-16T08:07:02.000Z,427.8971252441406
2023-04-16T08:08:04.000Z,431.3384704589844
2023-04-16T08:09:07.000Z,430.625244140625
2023-04-16T08:10:09.000Z,432.460205078125
2023-04-16T08:11:12.000Z,431.6847839355469
2023-04-16T08:12:14.000Z,432.6181640625
2023-04-16T08:13:16.000Z,431.6607666015625
2023-04-16T08:14:19.000Z,431.44873046875
2023-04-16T08:15:21.000Z,430.5882263183594
2023-04-16T08:16:23.000Z,428.3183898925781
2023-04-16T08:17:26.000Z,428.3984375
2023-04-16T08:18:28.000Z,429.1255187988281
2023-04-16T08:19:30.000Z,430.07666015625
2023-04-16T08:20:33.000Z,430.9111328125
2023-04-16T08:21:35.000Z,430.4727783203125
2023-04-16T08:22:37.000Z,428.4736022949219
2023-04-16T08:23:40.000Z,428.1632385253906
2023-04-16T08:24:42.000Z,430.8078918457031
2023-04-16T08:25:44.000Z,427.6582336425781
2023-04-16T08:26:47.000Z,425.42730712890625
2023-04-16T08:27:49.000Z,427.3530578613281
2023-04-16T08:28:51.000Z,430.9674072265625
2023-04-16T08:29:54.000Z,430.72930908203125
2023-04-16T08:30:56.000Z,430.2003173828125
2023-04-16T08:31:59.000Z,428.52972412109375
2023-04-16T08:33:01.000Z,429.8480529785156
2023-04-16T08:34:03.000Z,427.722900390625
2023-04-16T08:35:06.000Z,428.3106384277344
2023-04-16T08:36:08.000Z,424.6876220703125
2023-04-16T08:37:10.000Z,423.0940246582031
2023-04-16T08:38:13.000Z,419.89923095703125
2023-04-16T08:39:15.000Z,418.8895263671875
2023-04-16T08:40:18.000Z,416.7733459472656
2023-04-16T08:41:20.000Z,417.2948303222656
2023-04-16T08:42:22.000Z,417.45330810546875
2023-04-16T08:43:25.000Z,417.7911682128906
2023-04-16T08:44:27.000Z,419.4027404785156
2023-04-16T08:45:29.000Z,418.71630859375
2023-04-16T08:46:32.000Z,414.79705810546875
2023-04-16T08:47:34.000Z,418.68682861328125
2023-04-16T08:48:36.000Z,418.2017822265625
2023-04-16T08:49:39.000Z,419.3123474121094
2023-04-16T08:50:41.000Z,418.5433044433594
2023-04-16T08:51:43.000Z,418.93896484375
2023-04-16T08:52:46.000Z,416.0346984863281
2023-04-16T08:53:48.000Z,416.25146484375
2023-04-16T08:54:50.000Z,415.9978942871094
2023-04-16T08:55:53.000Z,411.1773376464844
2023-04-16T08:56:55.000Z,408.19464111328125
2023-04-16T08:57:57.000Z,411.53997802734375
2023-04-16T08:59:00.000Z,413.8096618652344
2023-04-16T09:00:02.000Z,414.64453125
2023-04-16T09:01:04.000Z,415.4649963378906
2023-04-16T09:02:07.000Z,412.2197265625
2023-04-16T09:03:09.000Z,412.7478332519531
2023-04-16T09:04:11.000Z,413.9244384765625
2023-04-16T09:05:13.000Z,412.9618835449219
2023-04-16T09:06:16.000Z,409.5765686035156
2023-04-16T09:07:18.000Z,407.53375244140625
2023-04-16T09:08:20.000Z,408.2203063964844
2023-04-16T09:09:23.000Z,408.2335205078125
2023-04-16T09:10:25.000Z,410.6958312988281
2023-04-16T09:11:27.000Z,413.8123474121094
2023-04-16T09:12:30.000Z,417.9356994628906
2023-04-16T09:13:32.000Z,415.6121520996094
2023-04-16T09:14:34.000Z,413.1962585449219
2023-04-16T09:15:36.000Z,412.6396789550781
2023-04-16T09:16:39.000Z,412.4095153808594
2023-04-16T09:17:41.000Z,414.57989501953125
2023-04-16T09:18:43.000Z,417.2247619628906
2023-04-16T09:19:46.000Z,416.8957824707031
2023-04-16T09:20:48.000Z,416.95269775390625
2023-04-16T09:21:50.000Z,416.60540771484375
2023-04-16T09:22:52.000Z,413.428466796875
2023-04-16T09:23:55.000Z,416.97216796875
2023-04-16T09:24:57.000Z,418.3716125488281
2023-04-16T09:25:59.000Z,417.1156311035156
2023-04-16T09:27:02.000Z,412.1699523925781
2023-04-16T09:28:04.000Z,415.4347229003906
2023-04-16T09:29:06.000Z,417.94000244140625
2023-04-16T09:30:08.000Z,419.7420654296875
2023-04-16T09:31:11.000Z,419.454345703125
2023-04-16T09:32:13.000Z,420.2436828613281
2023-04-16T09:33:15.000Z,417.2552795410156
2023-04-16T09:34:17.000Z,422.12188720703125
2023-04-16T09:35:20.000Z,421.31365966796875
2023-04-16T09:36:22.000Z,418.671142578125
2023-04-16T09:37:24.000Z,419.18475341796875
2023-04-16T09:38:27.000Z,417.33453369140625
2023-04-16T09:39:29.000Z,418.8804016113281